Moneta, VA

7:29 PM EST on February 26, 2015 (GMT -0500)
Long Island Estates | Change Station
CLOSE
Current Station
Personal Weather Station
Location: Moneta, VA
Elevation: 810 ft
Nearby Weather Stations

Elev 810 ft 37.16 °N, 79.70 °W | Updated 17 seconds ago

Overcast
Overcast
36.7 °F
Feels Like 37 °F
N
0.0
Wind Variable Wind from SW
Gusts 0.0 mph

Today
High -- | Low -- °F
--% Chance of Precip.
Yesterday
High -- | Low -- °F
Precip. -- in
6:54 AM 6:09 PM
Waxing Gibbous, 63% visible
Pressure 30.06 in
Visibility 10.0 miles
Clouds Few 3600 ft
Overcast 4800 ft
Windchill 37 °F
Dew Point 32 °F
Humidity 81%
Rainfall 0.23 in
Snow Depth Not available.
UV 0.0 out of 12
Pollen .70 out of 12
Air Quality Not available.
Flu Activity Not available.
METAR KROA 262354Z 11004KT 10SM FEW036 OVC048 02/M02 A3003 RMK AO2 SLP177 4/007 T00221022 10039 20017 53033

More Conditions Fewer Conditions

Pressure 30.06 in
Visibility 10.0 miles
Clouds Few 3600 ft
Overcast 4800 ft
Windchill 37 °F
Dew Point 32 °F
Humidity 81%
Rainfall 0.23 in
Snow Depth Not available.
UV 0.0 out of 12
Pollen .70 out of 12
Air Quality Not available.
Flu Activity Not available.
METAR KROA 262354Z 11004KT 10SM FEW036 OVC048 02/M02 A3003 RMK AO2 SLP177 4/007 T00221022 10039 20017 53033

More Conditions Fewer Conditions

10-Day Weather Forecast

Almanac

Astronomy

Feb. 26, 2015 Rise Set
Actual Time
Civil Twilight
Nautical Twilight
Astronomical Twilight
Moon
Length of Visible Light
Length of Day
Tomorrow will be .
, % of the Moon is Illuminated

Today's Extremes

State Highs State Lows

Community

WunderPhotos

Upload Photos

1,800,543 photos uploaded!

WunderBlogs® & News

Nearby

Air Quality

  Air Quality AQ Index Pollutant
Not available.

Snow Depth

Station Depth Elevation

Earthquake Activity

City Distance Mag. Time & Date
Minimum magnitude displayed is 2.5.

Coastal Water Temperatures

Place Temperature

Nearby Weather Stations

Special Statement
Statement as of 3:08 PM EST on February 26, 2015

... Black ice expected tonight...

Temperatures reached the mid to upper 30s across much of southeast
West Virginia and southwest Virginia today. This helped generate
some snow melt water. This water will refreeze tonight and produce
ice on surfaces such as roads... sidewalks... driveways and parking
lots. Expect temperatures to fall below freezing between 600 PM
and 900 PM. Caution should be exercised while driving or walking
as a wet looking surface will more likely be icy.


Ds


308 PM EST Thu Feb 26 2015

... Black ice expected tonight...

Temperatures reached the mid to upper 30s across much of southeast
West Virginia and southwest Virginia today. This helped generate
some snow melt water. This water will refreeze tonight and produce
ice on surfaces such as roads... sidewalks... driveways and parking
lots. Expect temperatures to fall below freezing between 600 PM
and 900 PM. Caution should be exercised while driving or walking
as a wet looking surface will more likely be icy.


Ds